Calgary Springbank Airport
CYBW : now visible

Airfield :











YOU CAN JOIN US ON...

 
LOGIN :

Register | Disclaimer

   EN    FR    IT 

 









Legend :    VFR   Marginal VFR   IFR   Intensive IFR   Very Intensive IFR
Visi :
Ceiling :
>= 8 km
>= 3000ft
5 to 8 km
1000 to 3000 ft
1500m to 5 km
500 to 1000 ft
800 to 1500m
200 to 500 ft
< 800m
< 200 ft
Symbols :   Thunderstorms  Fog  Heavy snow  Heavy precipitations  Wind > 20 kt






- Airport Elevation : 3937 ft
- IATA code : YBW


CYBW - Calgary Springbank

CURRENT METAR :
  • 072100Z AUTO 05008KT 9SM -SN OVC013 M02/M05 A2982 RMK SLP156

EXPIRED METARs :
  • 072035Z AUTO 07013KT 9SM -SN SCT013 BKN018 OVC032 M02/M04 A2981 RMK SLP148
  • 072004Z AUTO 13008KT 9SM SCT024 OVC030 00/M06 A2979 RMK SLP140
  • 071930Z AUTO 10007KT 9SM OVC024 M00/M05 A2978 RMK SLP136
  • 071921Z AUTO 09008KT 9SM BKN021 OVC031 M00/M05 A2978 RMK SLP136
  • 071908Z AUTO 10009KT 9SM BKN021 OVC033 M00/M05 A2977 RMK SLP133
  • 071852Z AUTO 10008KT 9SM SCT023 BKN031 OVC035 M00/M05 A2977 RMK SLP127

TAF TAF CYBW
Valid from the 07 at 18:00 until the 08 at 04:00 UTC


071740Z 0718/0804 VRB03KT P6SM BKN020
TEMPO 0718/0721 SCT020
BECMG 0718/0720 04015G25KT
FM072100 04015G25KT P6SM -SN SCT020 OVC040
TEMPO 0721/0803 2SM -SN SCT008 OVC020 RMK FCST BASED ON AUTO OBS. NXT FCST BY 080000Z



MET'MAP, your aeronautical weather chart ! - Copyright ORBIFLY December 2007 - Disclaimer

ORBIFLY MET'MAP TEAM :

Programming & Development : Alexandra Zaïnal
Concept & original design : Baudouin d'Aumeries
Assistance for programming : Marc-Olivier Méhu
Technical & hardware support : Manuel Goepfert

Contact : metmap@orbifly.com




SOURCES & CREDITS :

   NOAA       Earth
Advisory